createdAt,value
2022-11-06T00:00:36.381Z,3.67
2022-11-06T00:03:05.466Z,3.28
2022-11-06T00:05:50.846Z,3.83
2022-11-06T00:08:29.117Z,4.13
2022-11-06T00:10:57.676Z,4.13
2022-11-06T00:13:26.194Z,4.07
2022-11-06T00:15:55.870Z,4.03
2022-11-06T00:18:27.519Z,3.70
2022-11-06T00:20:55.615Z,4.10
2022-11-06T00:23:23.666Z,3.67
2022-11-06T00:25:53.111Z,3.95
2022-11-06T00:28:21.151Z,3.95
2022-11-06T00:30:49.424Z,4.07
2022-11-06T00:33:18.776Z,3.97
2022-11-06T00:35:47.027Z,4.30
2022-11-06T00:38:15.464Z,4.15
2022-11-06T00:40:43.893Z,4.65
2022-11-06T00:43:11.888Z,3.95
2022-11-06T00:45:40.135Z,4.60
2022-11-06T00:48:08.391Z,4.38
2022-11-06T00:50:37.835Z,5.05
2022-11-06T00:53:05.992Z,3.95
2022-11-06T00:55:34.147Z,4.03
2022-11-06T00:58:02.189Z,4.40
2022-11-06T01:00:30.423Z,3.92
2022-11-06T01:02:58.478Z,4.35
2022-11-06T01:05:26.776Z,4.05
2022-11-06T01:07:56.115Z,4.18
2022-11-06T01:10:24.261Z,3.63
2022-11-06T01:12:52.261Z,4.65
2022-11-06T01:15:20.424Z,3.97
2022-11-06T01:17:48.506Z,4.80
2022-11-06T01:20:16.654Z,4.50
2022-11-06T01:22:44.922Z,4.45
2022-11-06T01:25:14.323Z,5.22
2022-11-06T01:27:42.554Z,4.53
2022-11-06T01:30:11.814Z,4.60
2022-11-06T01:32:39.971Z,4.72
2022-11-06T01:35:08.626Z,4.63
2022-11-06T01:37:36.780Z,4.70
2022-11-06T01:40:05.298Z,4.78
2022-11-06T01:42:34.772Z,4.72
2022-11-06T01:45:35.525Z,4.32
2022-11-06T01:48:05.276Z,5.00
2022-11-06T01:50:34.013Z,5.00
2022-11-06T01:53:03.010Z,4.70
2022-11-06T01:55:34.520Z,4.32
2022-11-06T01:58:05.821Z,4.50
2022-11-06T02:00:34.172Z,4.95
2022-11-06T02:03:03.537Z,4.68
2022-11-06T02:05:32.457Z,4.25
2022-11-06T02:08:02.042Z,4.60
2022-11-06T02:10:31.206Z,4.30
2022-11-06T02:13:19.772Z,4.68
2022-11-06T02:15:52.687Z,5.03
2022-11-06T02:18:40.821Z,3.90
2022-11-06T02:21:38.016Z,4.32
2022-11-06T02:24:37.622Z,4.30
2022-11-06T02:27:11.732Z,3.80
2022-11-06T02:29:48.478Z,3.97
2022-11-06T02:32:21.793Z,4.20
2022-11-06T02:34:52.918Z,4.00
2022-11-06T02:37:26.573Z,4.22
2022-11-06T02:39:56.633Z,4.13
2022-11-06T02:42:29.221Z,4.07
2022-11-06T02:44:58.983Z,3.85
2022-11-06T02:47:31.179Z,3.85
2022-11-06T02:50:06.193Z,3.85
2022-11-06T02:52:38.246Z,4.00
2022-11-06T02:55:12.439Z,4.30
2022-11-06T02:57:47.152Z,4.20
2022-11-06T03:00:17.101Z,4.70
2022-11-06T03:02:50.922Z,3.63
2022-11-06T03:05:24.633Z,4.20
2022-11-06T03:07:57.545Z,4.00
2022-11-06T03:10:31.645Z,4.40
2022-11-06T03:13:10.445Z,3.67
2022-11-06T03:15:43.910Z,4.50
2022-11-06T03:18:16.096Z,4.32
2022-11-06T03:20:50.805Z,3.90
2022-11-06T03:23:25.461Z,3.60
2022-11-06T03:25:57.871Z,3.47
2022-11-06T03:28:33.468Z,3.47
2022-11-06T03:31:06.271Z,4.07
2022-11-06T03:33:38.654Z,3.85
2022-11-06T03:36:12.118Z,3.53
2022-11-06T03:38:43.577Z,3.63
2022-11-06T03:41:15.455Z,3.47
2022-11-06T03:43:48.696Z,3.75
2022-11-06T03:46:20.869Z,3.50
2022-11-06T03:48:52.351Z,3.70
2022-11-06T03:51:23.023Z,3.65
2022-11-06T03:53:53.935Z,3.42
2022-11-06T03:56:28.870Z,3.85
2022-11-06T03:59:02.755Z,4.00
2022-11-06T04:01:36.608Z,3.33
2022-11-06T04:04:07.538Z,4.20
2022-11-06T04:06:41.877Z,3.47
2022-11-06T04:09:31.808Z,3.30
2022-11-06T04:12:19.541Z,3.67
2022-11-06T04:14:52.163Z,3.92
2022-11-06T04:17:23.720Z,3.47
2022-11-06T04:19:53.682Z,3.90
2022-11-06T04:22:40.470Z,3.78
2022-11-06T04:25:51.167Z,4.38
2022-11-06T04:28:29.740Z,4.20
2022-11-06T04:31:07.303Z,3.55
2022-11-06T04:33:43.560Z,4.00
2022-11-06T04:36:22.819Z,3.65
2022-11-06T04:38:57.100Z,4.10
2022-11-06T04:41:34.539Z,3.75
2022-11-06T04:44:06.360Z,3.38
2022-11-06T04:46:40.670Z,3.60
2022-11-06T04:51:40.104Z,3.72
2022-11-06T04:54:11.235Z,3.80
2022-11-06T04:56:45.545Z,3.80
2022-11-06T04:59:16.724Z,3.80
2022-11-06T05:01:47.243Z,3.80
2022-11-06T05:04:15.588Z,3.50
2022-11-06T05:06:43.828Z,3.97
2022-11-06T05:09:11.980Z,3.22
2022-11-06T05:11:40.283Z,3.60
2022-11-06T05:14:08.350Z,3.28
2022-11-06T05:16:36.879Z,3.90
2022-11-06T05:19:06.239Z,3.67
2022-11-06T05:21:51.589Z,3.38
2022-11-06T05:24:19.921Z,4.22
2022-11-06T05:26:48.127Z,2.95
2022-11-06T05:29:16.701Z,3.65
2022-11-06T05:31:44.669Z,3.53
2022-11-06T05:34:14.347Z,3.72
2022-11-06T05:36:42.358Z,3.05
2022-11-06T05:39:10.865Z,3.83
2022-11-06T05:41:38.937Z,3.00
2022-11-06T05:44:07.235Z,2.95
2022-11-06T05:46:48.092Z,3.20
2022-11-06T05:49:18.812Z,3.25
2022-11-06T05:51:47.237Z,3.75
2022-11-06T05:54:15.891Z,3.33
2022-11-06T05:56:44.194Z,3.03
2022-11-06T05:59:13.050Z,3.17
2022-11-06T06:01:41.561Z,3.10
2022-11-06T06:04:09.705Z,3.17
2022-11-06T06:06:39.702Z,2.80
2022-11-06T06:09:07.697Z,2.67
2022-11-06T06:11:35.936Z,3.08
2022-11-06T06:14:04.002Z,3.03
2022-11-06T06:16:32.117Z,2.80
2022-11-06T06:19:00.177Z,2.80
2022-11-06T06:21:28.210Z,3.13
2022-11-06T06:23:57.888Z,2.97
2022-11-06T06:26:25.887Z,3.00
2022-11-06T06:28:54.281Z,2.72
2022-11-06T06:31:22.293Z,2.58
2022-11-06T06:33:50.671Z,2.30
2022-11-06T06:36:18.662Z,3.00
2022-11-06T06:38:46.800Z,2.95
2022-11-06T06:41:16.476Z,3.28
2022-11-06T06:43:44.495Z,2.70
2022-11-06T06:46:12.805Z,2.53
2022-11-06T06:48:40.840Z,3.25
2022-11-06T06:51:09.502Z,3.35
2022-11-06T06:53:38.043Z,2.55
2022-11-06T06:56:06.892Z,2.60
2022-11-06T06:58:36.314Z,2.70
2022-11-06T07:01:10.998Z,2.80
2022-11-06T07:03:39.456Z,2.20
2022-11-06T07:06:08.747Z,2.47
2022-11-06T07:08:37.303Z,2.00
2022-11-06T07:11:07.944Z,2.45
2022-11-06T07:13:37.594Z,2.53
2022-11-06T07:16:06.039Z,2.75
2022-11-06T07:18:34.990Z,2.42
2022-11-06T07:21:06.404Z,2.20
2022-11-06T07:23:35.629Z,2.28
2022-11-06T07:26:04.163Z,2.10
2022-11-06T07:28:32.349Z,2.22
2022-11-06T07:31:03.163Z,2.33
2022-11-06T07:33:31.509Z,2.05
2022-11-06T07:36:04.402Z,2.50
2022-11-06T07:38:34.112Z,2.63
2022-11-06T07:41:06.191Z,2.03
2022-11-06T07:43:34.671Z,2.08
2022-11-06T07:46:06.836Z,2.55
2022-11-06T07:48:35.457Z,2.35
2022-11-06T07:51:04.700Z,2.03
2022-11-06T07:53:33.052Z,2.65
2022-11-06T07:56:01.288Z,1.92
2022-11-06T07:58:29.622Z,2.38
2022-11-06T08:00:59.731Z,2.28
2022-11-06T08:03:30.304Z,2.22
2022-11-06T08:05:58.881Z,2.08
2022-11-06T08:08:27.019Z,2.22
2022-11-06T08:10:55.270Z,2.40
2022-11-06T08:13:23.403Z,2.53
2022-11-06T08:15:51.403Z,2.10
2022-11-06T08:18:19.589Z,2.35
2022-11-06T08:20:49.010Z,2.22
2022-11-06T08:23:17.101Z,1.50
2022-11-06T08:25:45.166Z,2.22
2022-11-06T08:28:13.515Z,1.92
2022-11-06T08:30:41.836Z,2.08
2022-11-06T08:33:10.023Z,1.80
2022-11-06T08:35:38.791Z,2.05
2022-11-06T08:38:08.175Z,1.63
2022-11-06T08:40:38.811Z,1.98
2022-11-06T08:43:08.332Z,2.00
2022-11-06T08:45:38.614Z,1.88
2022-11-06T08:48:07.766Z,2.00
2022-11-06T08:50:37.467Z,1.77
2022-11-06T08:53:08.154Z,1.58
2022-11-06T08:55:38.368Z,2.30
2022-11-06T08:58:07.209Z,1.90
2022-11-06T09:00:36.360Z,1.90
2022-11-06T09:03:08.130Z,1.60
2022-11-06T09:05:36.233Z,1.65
2022-11-06T09:08:04.562Z,1.60
2022-11-06T09:10:33.996Z,1.60
2022-11-06T09:13:02.089Z,2.08
2022-11-06T09:15:30.131Z,1.55
2022-11-06T09:17:58.499Z,1.80
2022-11-06T09:20:27.240Z,1.70
2022-11-06T09:22:55.888Z,1.42
2022-11-06T09:25:23.887Z,1.50
2022-11-06T09:27:59.238Z,2.58
2022-11-06T09:30:29.195Z,1.48
2022-11-06T09:32:59.286Z,1.52
2022-11-06T09:35:29.308Z,1.33
2022-11-06T09:38:02.447Z,1.48
2022-11-06T09:40:34.902Z,1.50
2022-11-06T09:43:13.156Z,1.50
2022-11-06T09:45:42.331Z,1.40
2022-11-06T09:48:19.095Z,1.15
2022-11-06T09:50:52.569Z,1.65
2022-11-06T09:53:27.258Z,1.58
2022-11-06T09:55:58.384Z,1.00
2022-11-06T09:58:32.827Z,1.33
2022-11-06T10:01:07.967Z,1.30
2022-11-06T10:03:42.729Z,1.25
2022-11-06T10:06:11.751Z,1.52
2022-11-06T10:08:43.138Z,1.30
2022-11-06T10:11:34.762Z,1.40
2022-11-06T10:14:16.122Z,1.40
2022-11-06T10:16:53.791Z,1.52
2022-11-06T10:19:26.821Z,1.23
2022-11-06T10:22:03.063Z,0.97
2022-11-06T10:24:38.868Z,1.17
2022-11-06T10:27:17.479Z,1.30
2022-11-06T10:30:07.537Z,1.15
2022-11-06T10:33:03.669Z,1.10
2022-11-06T10:35:36.229Z,1.15
2022-11-06T10:38:08.522Z,1.33
2022-11-06T10:40:37.560Z,1.40
2022-11-06T10:43:13.795Z,0.82
2022-11-06T10:45:49.695Z,1.40
2022-11-06T10:48:29.086Z,1.45
2022-11-06T10:51:20.488Z,1.45
2022-11-06T10:53:57.322Z,1.00
2022-11-06T10:56:47.892Z,1.23
2022-11-06T10:59:17.149Z,1.15
2022-11-06T11:01:46.828Z,1.35
2022-11-06T11:04:15.024Z,1.30
2022-11-06T11:06:43.227Z,1.40
2022-11-06T11:09:31.700Z,1.45
2022-11-06T11:12:00.363Z,1.00
2022-11-06T11:14:30.142Z,1.00
2022-11-06T11:17:02.603Z,1.23
2022-11-06T11:19:41.149Z,1.40
2022-11-06T11:22:20.388Z,1.25
2022-11-06T11:25:02.839Z,1.17
2022-11-06T11:27:33.020Z,1.20
2022-11-06T11:30:01.260Z,1.10
2022-11-06T11:32:32.137Z,1.10
2022-11-06T11:35:00.720Z,0.80
2022-11-06T11:37:30.904Z,1.33
2022-11-06T11:40:20.831Z,1.35
2022-11-06T11:42:49.004Z,1.05
2022-11-06T11:45:19.854Z,0.93
2022-11-06T11:47:51.566Z,1.42
2022-11-06T11:50:31.896Z,1.02
2022-11-06T11:53:10.445Z,0.80
2022-11-06T11:55:42.405Z,0.95
2022-11-06T11:58:21.553Z,1.00
2022-11-06T12:00:56.331Z,1.05
2022-11-06T12:03:30.016Z,1.13
2022-11-06T12:06:08.902Z,0.90
2022-11-06T12:08:39.144Z,0.88
2022-11-06T12:11:08.742Z,1.05
2022-11-06T12:13:36.819Z,0.60
2022-11-06T12:16:08.665Z,0.88
2022-11-06T12:18:41.955Z,0.90
2022-11-06T12:21:15.570Z,0.90
2022-11-06T12:23:47.445Z,1.08
2022-11-06T12:26:25.292Z,0.70
2022-11-06T12:29:02.031Z,1.35
2022-11-06T12:31:39.178Z,1.33
2022-11-06T12:34:19.647Z,0.77
2022-11-06T12:37:02.553Z,1.20
2022-11-06T12:39:35.657Z,1.00
2022-11-06T12:42:05.453Z,1.02
2022-11-06T12:44:33.699Z,0.90
2022-11-06T12:47:09.169Z,0.88
2022-11-06T12:50:05.742Z,0.90
2022-11-06T12:52:51.816Z,0.88
2022-11-06T12:55:27.753Z,0.90
2022-11-06T12:58:12.909Z,0.90
2022-11-06T13:00:53.668Z,1.13
2022-11-06T13:03:42.803Z,0.93
2022-11-06T13:06:19.566Z,1.10
2022-11-06T13:08:55.278Z,1.60
2022-11-06T13:11:32.729Z,1.00
2022-11-06T13:14:14.729Z,1.23
2022-11-06T13:16:49.977Z,1.40
2022-11-06T13:19:25.815Z,1.13
2022-11-06T13:22:13.580Z,1.20
2022-11-06T13:24:49.070Z,1.55
2022-11-06T13:27:26.383Z,1.30
2022-11-06T13:29:57.498Z,1.33
2022-11-06T13:32:28.140Z,1.40
2022-11-06T13:34:57.533Z,1.30
2022-11-06T13:37:37.913Z,1.20
2022-11-06T13:40:19.074Z,1.60
2022-11-06T13:42:52.614Z,1.25
2022-11-06T13:45:22.778Z,1.40
2022-11-06T13:48:15.187Z,1.17
2022-11-06T13:50:51.972Z,1.40
2022-11-06T13:53:28.690Z,1.25
2022-11-06T13:56:06.732Z,1.35
2022-11-06T13:58:59.812Z,1.50
2022-11-06T14:01:42.979Z,1.50
2022-11-06T14:04:50.850Z,1.33
2022-11-06T14:07:22.623Z,2.08
2022-11-06T14:09:53.125Z,1.40
2022-11-06T14:12:23.432Z,1.30
2022-11-06T14:14:55.752Z,1.60
2022-11-06T14:17:25.431Z,1.15
2022-11-06T14:20:07.074Z,1.80
2022-11-06T14:22:36.783Z,1.30
2022-11-06T14:25:38.477Z,1.38
2022-11-06T14:28:08.119Z,1.50
2022-11-06T14:31:10.965Z,1.73
2022-11-06T14:34:01.185Z,1.77
2022-11-06T14:36:33.571Z,1.65
2022-11-06T14:39:03.738Z,1.60
2022-11-06T14:41:55.134Z,1.73
2022-11-06T14:44:49.397Z,1.85
2022-11-06T14:47:29.693Z,2.30
2022-11-06T14:49:59.941Z,2.50
2022-11-06T14:52:28.937Z,1.80
2022-11-06T14:55:05.214Z,1.80
2022-11-06T14:57:46.287Z,1.90
2022-11-06T15:00:36.382Z,1.88
2022-11-06T15:03:07.883Z,2.10
2022-11-06T15:05:42.179Z,2.17
2022-11-06T15:08:11.062Z,1.88
2022-11-06T15:10:51.000Z,1.60
2022-11-06T15:13:31.250Z,2.00
2022-11-06T15:16:06.047Z,1.60
2022-11-06T15:18:37.467Z,1.80
2022-11-06T15:21:10.615Z,2.33
2022-11-06T15:23:43.690Z,2.00
2022-11-06T15:26:23.928Z,1.80
2022-11-06T15:29:07.576Z,1.90
2022-11-06T15:31:38.610Z,2.23
2022-11-06T15:34:14.082Z,2.10
2022-11-06T15:36:46.129Z,2.13
2022-11-06T15:39:25.171Z,1.80
2022-11-06T15:41:53.479Z,2.00
2022-11-06T15:44:22.591Z,2.15
2022-11-06T15:46:55.877Z,2.30
2022-11-06T15:49:23.922Z,2.60
2022-11-06T15:51:54.041Z,2.28
2022-11-06T15:54:36.636Z,1.98
2022-11-06T15:57:09.858Z,2.08
2022-11-06T15:59:38.067Z,2.42
2022-11-06T16:02:16.223Z,2.30
2022-11-06T16:04:46.045Z,2.40
2022-11-06T16:07:15.751Z,2.42
2022-11-06T16:09:44.718Z,2.58
2022-11-06T16:12:15.768Z,2.30
2022-11-06T16:14:45.233Z,3.53
2022-11-06T16:17:23.272Z,2.75
2022-11-06T16:19:53.522Z,2.45
2022-11-06T16:22:29.674Z,2.45
2022-11-06T16:25:01.457Z,2.70
2022-11-06T16:27:35.509Z,2.22
2022-11-06T16:30:05.172Z,2.30
2022-11-06T16:32:40.806Z,2.00
2022-11-06T16:35:33.501Z,2.38
2022-11-06T16:38:44.738Z,2.53
2022-11-06T16:41:37.328Z,2.50
2022-11-06T16:44:30.973Z,2.33
2022-11-06T16:47:15.420Z,2.28
2022-11-06T16:49:52.608Z,2.20
2022-11-06T16:52:26.329Z,2.05
2022-11-06T16:54:56.155Z,2.30
2022-11-06T16:57:27.424Z,2.63
2022-11-06T17:00:02.698Z,2.42
2022-11-06T17:02:33.959Z,3.05
2022-11-06T17:05:16.388Z,2.55
2022-11-06T17:07:46.001Z,2.80
2022-11-06T17:10:42.128Z,2.20
2022-11-06T17:13:16.355Z,2.50
2022-11-06T17:15:46.423Z,2.28
2022-11-06T17:18:20.291Z,2.38
2022-11-06T17:21:00.726Z,2.50
2022-11-06T17:23:30.360Z,2.10
2022-11-06T17:26:00.935Z,2.22
2022-11-06T17:28:29.071Z,2.03
2022-11-06T17:30:57.171Z,2.13
2022-11-06T17:33:25.520Z,2.28
2022-11-06T17:35:53.541Z,2.30
2022-11-06T17:38:23.202Z,2.08
2022-11-06T17:40:51.300Z,2.50
2022-11-06T17:43:19.392Z,2.40
2022-11-06T17:45:49.944Z,2.38
2022-11-06T17:48:18.505Z,2.22
2022-11-06T17:51:04.235Z,2.03
2022-11-06T17:53:33.652Z,1.95
2022-11-06T17:56:04.449Z,2.05
2022-11-06T17:58:32.586Z,1.80
2022-11-06T18:01:07.147Z,1.85
2022-11-06T18:03:36.695Z,1.60
2022-11-06T18:06:05.386Z,1.50
2022-11-06T18:08:34.744Z,1.92
2022-11-06T18:11:02.782Z,1.60
2022-11-06T18:13:31.874Z,1.52
2022-11-06T18:15:59.895Z,1.55
2022-11-06T18:18:29.219Z,1.75
2022-11-06T18:20:57.627Z,1.50
2022-11-06T18:23:25.762Z,1.40
2022-11-06T18:25:58.920Z,1.50
2022-11-06T18:28:27.102Z,1.33
2022-11-06T18:30:55.191Z,1.45
2022-11-06T18:33:23.211Z,1.50
2022-11-06T18:35:52.144Z,1.60
2022-11-06T18:38:20.536Z,1.48
2022-11-06T18:40:51.607Z,1.20
2022-11-06T18:43:21.406Z,1.35
2022-11-06T18:45:49.833Z,1.27
2022-11-06T18:48:21.406Z,1.20
2022-11-06T18:50:50.241Z,1.60
2022-11-06T18:53:18.270Z,1.55
2022-11-06T18:55:47.181Z,1.63
2022-11-06T18:58:16.091Z,1.52
2022-11-06T19:00:45.983Z,1.73
2022-11-06T19:03:14.167Z,1.35
2022-11-06T19:05:48.070Z,1.70
2022-11-06T19:08:16.481Z,1.13
2022-11-06T19:10:45.028Z,1.50
2022-11-06T19:13:13.674Z,1.55
2022-11-06T19:15:43.017Z,1.60
2022-11-06T19:18:13.081Z,1.58
2022-11-06T19:20:41.762Z,1.63
2022-11-06T19:23:13.750Z,1.40
2022-11-06T19:25:42.569Z,1.45
2022-11-06T19:28:11.431Z,1.38
2022-11-06T19:30:39.855Z,1.80
2022-11-06T19:33:08.733Z,1.65
2022-11-06T19:35:39.750Z,1.90
2022-11-06T19:38:08.260Z,1.50
2022-11-06T19:40:36.264Z,1.67
2022-11-06T19:43:06.960Z,2.25
2022-11-06T19:45:36.581Z,2.22
2022-11-06T19:48:07.015Z,2.47
2022-11-06T19:50:58.727Z,2.60
2022-11-06T19:53:25.916Z,2.70
2022-11-06T19:55:54.053Z,2.80
2022-11-06T19:58:22.844Z,2.72
2022-11-06T20:00:50.906Z,3.20
2022-11-06T20:03:19.204Z,3.10
2022-11-06T20:05:48.814Z,3.65
2022-11-06T20:08:16.881Z,3.90
2022-11-06T20:10:45.349Z,3.92
2022-11-06T20:13:13.738Z,4.38
2022-11-06T20:15:42.074Z,4.07
2022-11-06T20:18:10.181Z,4.28
2022-11-06T20:20:38.479Z,4.22
2022-11-06T20:23:08.035Z,4.35
2022-11-06T20:25:36.091Z,4.30
2022-11-06T20:28:04.723Z,4.53
2022-11-06T20:30:32.979Z,5.70
2022-11-06T20:33:01.131Z,5.03
2022-11-06T20:35:29.458Z,5.95
2022-11-06T20:37:57.604Z,5.32
2022-11-06T20:40:31.860Z,6.32
2022-11-06T20:43:02.962Z,6.95
2022-11-06T20:45:31.324Z,7.43
2022-11-06T20:47:59.715Z,7.32
2022-11-06T20:50:28.016Z,7.47
2022-11-06T20:52:56.064Z,7.70
2022-11-06T20:55:24.487Z,7.85
2022-11-06T20:57:53.855Z,8.60
2022-11-06T21:00:22.642Z,8.93
2022-11-06T21:02:51.773Z,9.52
2022-11-06T21:05:20.407Z,9.10
2022-11-06T21:07:48.580Z,9.48
2022-11-06T21:10:17.059Z,10.90
2022-11-06T21:12:45.206Z,9.07
2022-11-06T21:15:14.810Z,9.85
2022-11-06T21:17:43.564Z,9.30
2022-11-06T21:20:11.703Z,10.10
2022-11-06T21:22:39.760Z,10.40
2022-11-06T21:25:08.705Z,10.48
2022-11-06T21:27:36.800Z,11.55
2022-11-06T21:30:05.500Z,11.05
2022-11-06T21:32:34.962Z,12.35
2022-11-06T21:35:03.117Z,11.43
2022-11-06T21:37:33.842Z,11.57
2022-11-06T21:40:01.970Z,11.90
2022-11-06T21:42:30.104Z,12.25
2022-11-06T21:44:58.134Z,12.13
2022-11-06T21:47:26.392Z,11.90
2022-11-06T21:49:55.781Z,12.35
2022-11-06T21:52:41.615Z,11.68
2022-11-06T21:55:28.259Z,11.68
2022-11-06T21:57:56.745Z,10.48
2022-11-06T22:00:24.795Z,10.82
2022-11-06T22:02:52.985Z,10.50
2022-11-06T22:05:23.095Z,10.20
2022-11-06T22:07:51.124Z,9.77
2022-11-06T22:10:19.459Z,8.80
2022-11-06T22:12:47.501Z,8.80
2022-11-06T22:15:15.710Z,9.02
2022-11-06T22:17:43.833Z,9.48
2022-11-06T22:20:12.928Z,7.55
2022-11-06T22:22:42.492Z,8.20
2022-11-06T22:25:11.103Z,7.90
2022-11-06T22:27:41.062Z,7.90
2022-11-06T22:30:10.617Z,7.75
2022-11-06T22:32:38.899Z,7.40
2022-11-06T22:35:07.118Z,6.72
2022-11-06T22:37:35.169Z,6.93
2022-11-06T22:40:05.330Z,6.75
2022-11-06T22:42:33.651Z,6.07
2022-11-06T22:45:01.769Z,6.18
2022-11-06T22:47:29.833Z,5.55
2022-11-06T22:49:58.023Z,5.35
2022-11-06T22:52:26.124Z,5.95
2022-11-06T22:54:54.213Z,5.75
2022-11-06T22:57:23.745Z,5.32
2022-11-06T22:59:51.794Z,6.18
2022-11-06T23:02:19.925Z,4.90
2022-11-06T23:04:48.056Z,5.22
2022-11-06T23:07:16.280Z,5.20
2022-11-06T23:09:44.451Z,6.28
2022-11-06T23:12:13.794Z,5.25
2022-11-06T23:14:43.677Z,5.63
2022-11-06T23:17:11.668Z,5.65
2022-11-06T23:19:39.835Z,5.28
2022-11-06T23:22:25.153Z,5.80
2022-11-06T23:24:53.774Z,5.75
2022-11-06T23:27:21.835Z,5.80
2022-11-06T23:29:51.807Z,5.32
2022-11-06T23:32:19.839Z,5.63
2022-11-06T23:34:48.017Z,6.40
2022-11-06T23:37:16.212Z,5.72
2022-11-06T23:39:44.304Z,5.50
2022-11-06T23:42:14.970Z,5.90
2022-11-06T23:45:00.708Z,5.22
2022-11-06T23:47:30.386Z,5.75
2022-11-06T23:49:59.436Z,5.68
2022-11-06T23:52:28.142Z,5.43
2022-11-06T23:54:56.340Z,5.32
2022-11-06T23:57:24.356Z,5.93
2022-11-06T23:59:52.524Z,5.63
